createdAt,value
2019-01-28T00:00:45.937Z,100299.81
2019-01-28T00:03:20.374Z,100307.58
2019-01-28T00:05:52.651Z,100313.17
2019-01-28T00:08:24.849Z,100311.98
2019-01-28T00:10:56.896Z,100320.05
2019-01-28T00:13:29.144Z,100314.68
2019-01-28T00:16:01.225Z,100313.30
2019-01-28T00:18:33.408Z,100314.80
2019-01-28T00:21:05.663Z,100315.32
2019-01-28T00:23:37.732Z,100315.80
2019-01-28T00:26:09.891Z,100320.36
2019-01-28T00:28:42.063Z,100322.03
2019-01-28T00:31:14.215Z,100323.86
2019-01-28T00:33:46.409Z,100329.09
2019-01-28T00:36:18.645Z,100330.61
2019-01-28T00:38:50.761Z,100327.03
2019-01-28T00:41:22.919Z,100333.14
2019-01-28T00:43:55.058Z,100329.38
2019-01-28T00:46:27.353Z,100334.13
2019-01-28T00:49:00.394Z,100334.09
2019-01-28T00:51:32.538Z,100332.23
2019-01-28T00:54:04.880Z,100335.28
2019-01-28T00:56:36.916Z,100332.08
2019-01-28T00:59:09.162Z,100337.30
2019-01-28T01:01:41.257Z,100343.86
2019-01-28T01:04:13.393Z,100340.80
2019-01-28T01:06:45.623Z,100342.66
2019-01-28T01:09:17.769Z,100349.89
2019-01-28T01:11:49.928Z,100345.16
2019-01-28T01:14:22.184Z,100353.05
2019-01-28T01:16:54.324Z,100359.13
2019-01-28T01:19:26.392Z,100360.47
2019-01-28T01:21:58.594Z,100372.77
2019-01-28T01:24:30.718Z,100377.37
2019-01-28T01:27:03.047Z,100377.48
2019-01-28T01:29:35.274Z,100376.13
2019-01-28T01:32:08.689Z,100386.09
2019-01-28T01:34:40.852Z,100391.96
2019-01-28T01:37:13.033Z,100393.82
2019-01-28T01:39:45.334Z,100396.67
2019-01-28T01:42:17.629Z,100396.95
2019-01-28T01:44:49.789Z,100395.25
2019-01-28T01:47:21.978Z,100397.11
2019-01-28T01:49:54.213Z,100398.89
2019-01-28T01:52:26.208Z,100404.28
2019-01-28T01:54:58.596Z,100412.05
2019-01-28T01:57:30.900Z,100418.08
2019-01-28T02:00:03.212Z,100423.27
2019-01-28T02:02:35.500Z,100421.44
2019-01-28T02:05:07.881Z,100429.53
2019-01-28T02:07:40.314Z,100437.31
2019-01-28T02:10:13.560Z,100451.47
2019-01-28T02:12:45.885Z,100450.79
2019-01-28T02:15:18.824Z,100447.10
2019-01-28T02:17:51.072Z,100451.42
2019-01-28T02:20:23.389Z,100460.27
2019-01-28T02:22:55.562Z,100463.42
2019-01-28T02:25:27.745Z,100462.66
2019-01-28T02:27:59.908Z,100470.03
2019-01-28T02:30:32.224Z,100484.03
2019-01-28T02:33:04.469Z,100478.13
2019-01-28T02:35:36.656Z,100482.00
2019-01-28T02:38:08.828Z,100476.78
2019-01-28T02:40:41.354Z,100479.62
2019-01-28T02:43:13.440Z,100482.53
2019-01-28T02:45:45.750Z,100484.23
2019-01-28T02:48:17.900Z,100487.09
2019-01-28T02:50:50.267Z,100486.94
2019-01-28T02:53:22.457Z,100487.56
2019-01-28T02:55:54.839Z,100495.66
2019-01-28T02:58:27.991Z,100498.35
2019-01-28T03:01:00.412Z,100505.81
2019-01-28T03:03:32.506Z,100501.41
2019-01-28T03:06:04.844Z,100507.99
2019-01-28T03:08:37.003Z,100505.45
2019-01-28T03:11:10.579Z,100519.45
2019-01-28T03:13:42.688Z,100524.05
2019-01-28T03:16:15.228Z,100521.00
2019-01-28T03:18:47.906Z,100527.74
2019-01-28T03:21:20.314Z,100521.84
2019-01-28T03:23:52.412Z,100532.14
2019-01-28T03:26:24.796Z,100533.02
2019-01-28T03:28:57.056Z,100538.36
2019-01-28T03:31:29.549Z,100546.82
2019-01-28T03:34:01.677Z,100547.75
2019-01-28T03:36:34.008Z,100550.75
2019-01-28T03:39:06.981Z,100550.03
2019-01-28T03:41:39.451Z,100553.56
2019-01-28T03:44:11.623Z,100563.52
2019-01-28T03:46:44.048Z,100564.98
2019-01-28T03:49:16.502Z,100569.53
2019-01-28T03:51:48.936Z,100569.17
2019-01-28T03:54:21.280Z,100577.57
2019-01-28T03:56:53.598Z,100588.56
2019-01-28T03:59:25.590Z,100591.74
2019-01-28T04:01:57.948Z,100592.73
2019-01-28T04:04:30.242Z,100594.08
2019-01-28T04:07:02.399Z,100594.73
2019-01-28T04:09:34.874Z,100598.78
2019-01-28T04:12:07.216Z,100605.16
2019-01-28T04:14:39.362Z,100606.27
2019-01-28T04:17:11.568Z,100605.55
2019-01-28T04:19:43.801Z,100607.11
2019-01-28T04:22:16.007Z,100615.14
2019-01-28T04:24:48.730Z,100618.14
2019-01-28T04:27:20.887Z,100621.67
2019-01-28T04:29:53.168Z,100619.84
2019-01-28T04:32:25.342Z,100623.67
2019-01-28T04:34:57.708Z,100625.65
2019-01-28T04:37:29.802Z,100628.20
2019-01-28T04:40:03.119Z,100633.26
2019-01-28T04:42:35.431Z,100632.17
2019-01-28T04:45:08.148Z,100628.58
2019-01-28T04:47:40.424Z,100635.47
2019-01-28T04:50:13.411Z,100637.95
2019-01-28T04:52:45.692Z,100629.16
2019-01-28T04:55:17.772Z,100628.13
2019-01-28T04:57:49.761Z,100626.09
2019-01-28T05:00:22.722Z,100626.45
2019-01-28T05:02:54.994Z,100632.14
2019-01-28T05:05:27.033Z,100625.41
2019-01-28T05:08:00.379Z,100627.80
2019-01-28T05:10:33.508Z,100629.16
2019-01-28T05:13:06.691Z,100630.72
2019-01-28T05:15:38.901Z,100626.52
2019-01-28T05:18:11.071Z,100631.14
2019-01-28T05:20:43.411Z,100622.55
2019-01-28T05:23:15.595Z,100626.89
2019-01-28T05:25:47.884Z,100615.80
2019-01-28T05:28:20.041Z,100613.25
2019-01-28T05:30:52.314Z,100619.13
2019-01-28T05:33:24.558Z,100619.42
2019-01-28T05:35:56.737Z,100622.41
2019-01-28T05:38:28.937Z,100611.27
2019-01-28T05:41:01.197Z,100610.43
2019-01-28T05:43:33.458Z,100617.32
2019-01-28T05:46:05.727Z,100614.77
2019-01-28T05:48:37.955Z,100601.77
2019-01-28T05:51:10.240Z,100605.38
2019-01-28T05:53:42.301Z,100595.45
2019-01-28T05:56:14.485Z,100595.25
2019-01-28T05:58:46.615Z,100588.42
2019-01-28T06:01:18.955Z,100584.38
2019-01-28T06:03:51.163Z,100578.15
2019-01-28T06:06:23.447Z,100570.17
2019-01-28T06:08:55.672Z,100571.89
2019-01-28T06:11:27.829Z,100562.45
2019-01-28T06:14:00.065Z,100566.34
2019-01-28T06:16:32.364Z,100555.35
2019-01-28T06:19:04.496Z,100547.78
2019-01-28T06:21:36.643Z,100538.85
2019-01-28T06:24:08.915Z,100536.69
2019-01-28T06:26:41.161Z,100530.31
2019-01-28T06:29:13.447Z,100529.80
2019-01-28T06:31:45.570Z,100526.12
2019-01-28T06:34:17.705Z,100513.89
2019-01-28T06:36:49.963Z,100511.20
2019-01-28T06:39:22.036Z,100509.44
2019-01-28T06:41:54.263Z,100507.40
2019-01-28T06:44:27.399Z,100497.40
2019-01-28T06:46:59.533Z,100493.03
2019-01-28T06:49:32.712Z,100484.22
2019-01-28T06:52:05.017Z,100483.92
2019-01-28T06:54:37.192Z,100470.45
2019-01-28T06:57:09.627Z,100475.15
2019-01-28T06:59:41.801Z,100479.04
2019-01-28T07:02:13.996Z,100469.09
2019-01-28T07:04:46.175Z,100467.63
2019-01-28T07:07:18.459Z,100459.34
2019-01-28T07:09:50.706Z,100461.52
2019-01-28T07:12:22.978Z,100452.59
2019-01-28T07:14:55.226Z,100446.55
2019-01-28T07:17:27.514Z,100447.20
2019-01-28T07:19:59.721Z,100445.20
2019-01-28T07:22:32.034Z,100433.06
2019-01-28T07:25:04.259Z,100425.97
2019-01-28T07:27:36.566Z,100420.20
2019-01-28T07:30:10.381Z,100414.50
2019-01-28T07:32:42.964Z,100413.16
2019-01-28T07:35:15.319Z,100405.73
2019-01-28T07:37:48.575Z,100403.06
2019-01-28T07:40:20.742Z,100402.31
2019-01-28T07:42:52.931Z,100397.92
2019-01-28T07:45:29.025Z,100394.86
2019-01-28T07:48:03.156Z,100388.23
2019-01-28T07:50:34.682Z,100387.34
2019-01-28T07:53:07.009Z,100384.33
2019-01-28T07:55:39.091Z,100382.47
2019-01-28T07:58:11.265Z,100375.94
2019-01-28T08:00:43.457Z,100368.64
2019-01-28T08:03:15.664Z,100372.68
2019-01-28T08:05:51.465Z,100366.66
2019-01-28T08:08:23.539Z,100368.33
2019-01-28T08:10:55.845Z,100360.55
2019-01-28T08:13:28.455Z,100356.03
2019-01-28T08:16:00.885Z,100353.81
2019-01-28T08:18:33.012Z,100354.33
2019-01-28T08:21:05.330Z,100345.05
2019-01-28T08:23:38.447Z,100340.89
2019-01-28T08:26:10.669Z,100330.95
2019-01-28T08:28:42.795Z,100328.25
2019-01-28T08:31:14.981Z,100332.97
2019-01-28T08:33:47.136Z,100332.97
2019-01-28T08:36:19.675Z,100325.20
2019-01-28T08:38:51.897Z,100322.66
2019-01-28T08:41:24.313Z,100317.47
2019-01-28T08:43:56.525Z,100312.59
2019-01-28T08:46:30.251Z,100302.65
2019-01-28T08:49:02.497Z,100298.77
2019-01-28T08:51:34.657Z,100295.23
2019-01-28T08:54:06.786Z,100287.03
2019-01-28T08:56:39.113Z,100279.47
2019-01-28T08:59:11.298Z,100273.44
2019-01-28T09:01:43.641Z,100273.39
2019-01-28T09:04:16.028Z,100276.61
2019-01-28T09:06:48.104Z,100270.58
2019-01-28T09:09:20.392Z,100269.27
2019-01-28T09:11:52.727Z,100269.08
2019-01-28T09:14:25.096Z,100261.30
2019-01-28T09:16:57.246Z,100253.70
2019-01-28T09:19:29.633Z,100254.56
2019-01-28T09:22:01.769Z,100248.15
2019-01-28T09:24:34.126Z,100252.86
2019-01-28T09:27:06.694Z,100255.20
2019-01-28T09:29:39.917Z,100253.54
2019-01-28T09:32:12.072Z,100251.52
2019-01-28T09:34:44.540Z,100256.59
2019-01-28T09:37:16.818Z,100255.41
2019-01-28T09:39:49.267Z,100253.89
2019-01-28T09:42:21.445Z,100259.28
2019-01-28T09:44:53.749Z,100262.49
2019-01-28T09:47:25.779Z,100252.58
2019-01-28T09:49:58.054Z,100250.20
2019-01-28T09:52:30.122Z,100249.18
2019-01-28T09:55:02.502Z,100241.64
2019-01-28T09:57:34.721Z,100245.56
2019-01-28T10:00:08.827Z,100246.95
2019-01-28T10:02:41.150Z,100234.45
2019-01-28T10:05:13.513Z,100236.80
2019-01-28T10:07:45.526Z,100240.84
2019-01-28T10:10:18.426Z,100238.15
2019-01-28T10:12:50.664Z,100246.52
2019-01-28T10:15:28.467Z,100243.83
2019-01-28T10:17:57.316Z,100243.83
2019-01-28T10:20:33.389Z,100242.63
2019-01-28T10:23:05.660Z,100236.92
2019-01-28T10:25:37.868Z,100244.25
2019-01-28T10:28:10.201Z,100238.57
2019-01-28T10:30:42.858Z,100233.30
2019-01-28T10:33:15.151Z,100233.17
2019-01-28T10:35:47.586Z,100232.34
2019-01-28T10:38:19.927Z,100230.25
2019-01-28T10:40:52.095Z,100230.61
2019-01-28T10:43:24.674Z,100223.73
2019-01-28T10:45:58.300Z,100225.44
2019-01-28T10:48:30.633Z,100226.08
2019-01-28T10:51:02.785Z,100227.27
2019-01-28T10:53:36.058Z,100229.48
2019-01-28T10:56:08.416Z,100233.53
2019-01-28T10:58:40.686Z,100235.88
2019-01-28T11:01:12.756Z,100237.58
2019-01-28T11:03:45.004Z,100236.00
2019-01-28T11:06:17.169Z,100244.25
2019-01-28T11:08:49.295Z,100244.48
2019-01-28T11:11:21.508Z,100244.31
2019-01-28T11:13:53.900Z,100238.05
2019-01-28T11:16:26.173Z,100234.02
2019-01-28T11:18:59.560Z,100234.88
2019-01-28T11:21:31.825Z,100235.36
2019-01-28T11:24:04.025Z,100239.92
2019-01-28T11:26:36.123Z,100231.83
2019-01-28T11:29:08.242Z,100232.38
2019-01-28T11:31:40.500Z,100231.19
2019-01-28T11:34:12.790Z,100228.01
2019-01-28T11:36:45.201Z,100229.16
2019-01-28T11:39:17.615Z,100223.77
2019-01-28T11:41:50.052Z,100227.84
2019-01-28T11:44:22.455Z,100223.77
2019-01-28T11:46:54.737Z,100231.54
2019-01-28T11:49:26.991Z,100231.03
2019-01-28T11:51:59.274Z,100230.19
2019-01-28T11:54:31.471Z,100231.89
2019-01-28T11:57:03.740Z,100229.23
2019-01-28T11:59:35.977Z,100225.50
2019-01-28T12:02:08.278Z,100227.55
2019-01-28T12:04:40.491Z,100224.02
2019-01-28T12:07:12.854Z,100225.86
2019-01-28T12:09:45.052Z,100230.77
2019-01-28T12:12:17.313Z,100227.55
2019-01-28T12:14:49.607Z,100230.61
2019-01-28T12:17:22.240Z,100230.09
2019-01-28T12:19:54.377Z,100230.61
2019-01-28T12:22:26.556Z,100232.28
2019-01-28T12:24:58.845Z,100233.30
2019-01-28T12:27:31.605Z,100237.67
2019-01-28T12:30:03.713Z,100234.97
2019-01-28T12:32:36.000Z,100230.45
2019-01-28T12:35:08.077Z,100230.92
2019-01-28T12:37:40.276Z,100229.93
2019-01-28T12:40:12.455Z,100229.28
2019-01-28T12:42:45.664Z,100232.30
2019-01-28T12:45:18.534Z,100228.26
2019-01-28T12:47:50.866Z,100224.05
2019-01-28T12:50:23.180Z,100221.20
2019-01-28T12:52:55.392Z,100212.94
2019-01-28T12:55:28.439Z,100212.48
2019-01-28T12:58:01.244Z,100205.25
2019-01-28T13:00:56.002Z,100204.92
2019-01-28T13:03:28.269Z,100208.78
2019-01-28T13:06:00.444Z,100199.50
2019-01-28T13:08:32.658Z,100189.20
2019-01-28T13:11:04.999Z,100195.59
2019-01-28T13:13:41.156Z,100200.70
2019-01-28T13:16:11.248Z,100197.31
2019-01-28T13:18:43.372Z,100198.66
2019-01-28T13:21:15.503Z,100205.06
2019-01-28T13:23:47.747Z,100207.11
2019-01-28T13:26:20.073Z,100205.77
2019-01-28T13:28:52.388Z,100206.77
2019-01-28T13:31:24.435Z,100204.25
2019-01-28T13:33:56.615Z,100204.09
2019-01-28T13:36:28.796Z,100206.95
2019-01-28T13:39:00.918Z,100216.39
2019-01-28T13:41:33.465Z,100215.36
2019-01-28T13:44:05.607Z,100223.45
2019-01-28T13:46:37.667Z,100231.42
2019-01-28T13:49:09.865Z,100239.16
2019-01-28T13:51:42.004Z,100240.67
2019-01-28T13:54:14.132Z,100245.20
2019-01-28T13:56:46.699Z,100241.00
2019-01-28T13:59:19.644Z,100233.74
2019-01-28T14:01:51.775Z,100240.75
2019-01-28T14:04:23.988Z,100236.86
2019-01-28T14:07:00.032Z,100235.73
2019-01-28T14:09:32.297Z,100222.11
2019-01-28T14:12:04.696Z,100220.49
2019-01-28T14:14:36.815Z,100228.31
2019-01-28T14:17:08.957Z,100233.03
2019-01-28T14:19:46.256Z,100232.34
2019-01-28T14:22:15.031Z,100226.81
2019-01-28T14:24:47.122Z,100223.09
2019-01-28T14:27:19.508Z,100229.33
2019-01-28T14:29:52.984Z,100228.86
2019-01-28T14:32:25.099Z,100234.77
2019-01-28T14:34:58.222Z,100232.05
2019-01-28T14:37:30.503Z,100238.09
2019-01-28T14:40:02.592Z,100243.31
2019-01-28T14:42:35.122Z,100243.98
2019-01-28T14:45:07.541Z,100235.54
2019-01-28T14:47:39.790Z,100234.54
2019-01-28T14:50:14.234Z,100233.70
2019-01-28T14:52:46.373Z,100238.23
2019-01-28T14:55:21.507Z,100235.54
2019-01-28T14:57:53.634Z,100236.41
2019-01-28T15:00:27.288Z,100234.73
2019-01-28T15:02:59.445Z,100233.35
2019-01-28T15:05:32.749Z,100235.86
2019-01-28T15:08:05.115Z,100232.48
2019-01-28T15:10:37.399Z,100243.13
2019-01-28T15:13:09.529Z,100241.59
2019-01-28T15:15:41.866Z,100249.34
2019-01-28T15:18:15.394Z,100254.37
2019-01-28T15:20:47.498Z,100253.90
2019-01-28T15:23:19.639Z,100249.84
2019-01-28T15:25:51.816Z,100250.33
2019-01-28T15:28:23.955Z,100250.02
2019-01-28T15:30:56.151Z,100251.84
2019-01-28T15:33:28.395Z,100248.66
2019-01-28T15:36:00.458Z,100250.17
2019-01-28T15:38:32.729Z,100256.08
2019-01-28T15:41:04.806Z,100254.37
2019-01-28T15:43:37.300Z,100256.24
2019-01-28T15:46:09.479Z,100251.36
2019-01-28T15:48:41.619Z,100249.66
2019-01-28T15:51:13.698Z,100245.61
2019-01-28T15:53:45.838Z,100252.20
2019-01-28T15:56:17.952Z,100255.08
2019-01-28T15:58:50.156Z,100249.94
2019-01-28T16:01:23.343Z,100248.97
2019-01-28T16:03:55.534Z,100242.39
2019-01-28T16:06:27.699Z,100249.34
2019-01-28T16:08:59.871Z,100260.68
2019-01-28T16:11:33.116Z,100257.13
2019-01-28T16:14:05.114Z,100268.66
2019-01-28T16:16:37.244Z,100263.94
2019-01-28T16:19:09.621Z,100265.13
2019-01-28T16:21:42.981Z,100263.77
2019-01-28T16:24:15.160Z,100257.20
2019-01-28T16:26:47.516Z,100260.74
2019-01-28T16:29:19.563Z,100261.75
2019-01-28T16:31:51.734Z,100257.87
2019-01-28T16:34:24.008Z,100278.16
2019-01-28T16:36:56.061Z,100275.43
2019-01-28T16:39:28.311Z,100281.02
2019-01-28T16:42:00.599Z,100274.08
2019-01-28T16:44:32.924Z,100276.79
2019-01-28T16:47:05.027Z,100276.79
2019-01-28T16:49:37.213Z,100277.52
2019-01-28T16:52:09.336Z,100282.55
2019-01-28T16:54:41.514Z,100282.92
2019-01-28T16:57:13.836Z,100275.30
2019-01-28T16:59:45.896Z,100277.17
2019-01-28T17:02:18.173Z,100279.53
2019-01-28T17:04:50.504Z,100281.05
2019-01-28T17:07:22.789Z,100276.48
2019-01-28T17:09:55.033Z,100260.90
2019-01-28T17:12:27.517Z,100255.88
2019-01-28T17:14:59.681Z,100260.42
2019-01-28T17:17:31.827Z,100266.81
2019-01-28T17:20:03.996Z,100264.61
2019-01-28T17:22:36.177Z,100270.02
2019-01-28T17:25:09.466Z,100264.30
2019-01-28T17:27:41.763Z,100261.93
2019-01-28T17:30:16.656Z,100263.11
2019-01-28T17:32:48.769Z,100270.54
2019-01-28T17:35:21.017Z,100270.05
2019-01-28T17:37:53.247Z,100280.19
2019-01-28T17:40:25.401Z,100273.77
2019-01-28T17:42:57.526Z,100281.88
2019-01-28T17:45:29.909Z,100277.65
2019-01-28T17:48:02.358Z,100276.30
2019-01-28T17:50:34.508Z,100268.52
2019-01-28T17:53:06.709Z,100270.87
2019-01-28T17:55:38.836Z,100275.28
2019-01-28T17:58:11.441Z,100280.00
2019-01-28T18:00:48.305Z,100272.05
2019-01-28T18:03:20.479Z,100285.76
2019-01-28T18:05:52.649Z,100287.47
2019-01-28T18:08:25.043Z,100278.13
2019-01-28T18:10:57.155Z,100283.55
2019-01-28T18:13:29.299Z,100282.19
2019-01-28T18:16:01.600Z,100293.53
2019-01-28T18:18:33.919Z,100287.12
2019-01-28T18:21:06.062Z,100292.70
2019-01-28T18:23:54.280Z,100299.47
2019-01-28T18:26:26.445Z,100301.83
2019-01-28T18:28:58.579Z,100291.17
2019-01-28T18:31:30.644Z,100290.31
2019-01-28T18:34:02.734Z,100295.05
2019-01-28T18:36:34.789Z,100290.48
2019-01-28T18:39:09.243Z,100280.34
2019-01-28T18:41:41.457Z,100284.89
2019-01-28T18:44:13.856Z,100282.34
2019-01-28T18:46:46.017Z,100273.39
2019-01-28T18:49:18.508Z,100273.05
2019-01-28T18:51:50.788Z,100269.33
2019-01-28T18:54:22.917Z,100259.14
2019-01-28T18:56:56.213Z,100250.66
2019-01-28T18:59:28.570Z,100242.89
2019-01-28T19:02:00.559Z,100236.28
2019-01-28T19:04:32.715Z,100243.72
2019-01-28T19:07:28.954Z,100243.20
2019-01-28T19:10:13.140Z,100242.35
2019-01-28T19:13:01.885Z,100253.53
2019-01-28T19:15:49.274Z,100260.13
2019-01-28T19:18:52.308Z,100268.42
2019-01-28T19:21:36.706Z,100271.13
2019-01-28T19:24:08.853Z,100262.13
2019-01-28T19:26:42.513Z,100254.00
2019-01-28T19:29:14.776Z,100234.39
2019-01-28T19:31:47.023Z,100221.45
2019-01-28T19:34:19.439Z,100218.28
2019-01-28T19:36:52.354Z,100229.28
2019-01-28T19:39:24.641Z,100233.19
2019-01-28T19:41:56.955Z,100238.28
2019-01-28T19:44:29.004Z,100238.73
2019-01-28T19:47:01.433Z,100244.84
2019-01-28T19:49:33.511Z,100238.59
2019-01-28T19:52:05.666Z,100240.44
2019-01-28T19:54:37.664Z,100250.09
2019-01-28T19:57:10.392Z,100253.28
2019-01-28T19:59:42.438Z,100232.86
2019-01-28T20:02:14.816Z,100230.66
2019-01-28T20:04:46.934Z,100226.24
2019-01-28T20:07:19.160Z,100219.13
2019-01-28T20:09:52.055Z,100220.98
2019-01-28T20:12:25.261Z,100219.98
2019-01-28T20:14:57.541Z,100215.08
2019-01-28T20:17:29.723Z,100220.65
2019-01-28T20:20:01.890Z,100228.41
2019-01-28T20:22:33.961Z,100212.70
2019-01-28T20:25:06.211Z,100207.78
2019-01-28T20:27:38.501Z,100207.77
2019-01-28T20:30:21.140Z,100203.05
2019-01-28T20:32:53.229Z,100196.95
2019-01-28T20:35:25.336Z,100192.23
2019-01-28T20:37:57.390Z,100180.42
2019-01-28T20:40:29.698Z,100190.22
2019-01-28T20:43:01.962Z,100196.11
2019-01-28T20:45:34.154Z,100197.98
2019-01-28T20:48:06.264Z,100188.48
2019-01-28T20:50:38.596Z,100187.48
2019-01-28T20:53:11.161Z,100184.25
2019-01-28T20:55:43.192Z,100167.38
2019-01-28T20:58:15.334Z,100167.20
2019-01-28T21:00:47.647Z,100162.31
2019-01-28T21:03:19.687Z,100169.37
2019-01-28T21:05:51.961Z,100171.41
2019-01-28T21:08:24.017Z,100167.02
2019-01-28T21:10:56.184Z,100159.08
2019-01-28T21:13:28.285Z,100153.84
2019-01-28T21:16:00.322Z,100149.62
2019-01-28T21:18:32.478Z,100148.95
2019-01-28T21:21:04.660Z,100148.95
2019-01-28T21:23:36.702Z,100149.44
2019-01-28T21:26:08.764Z,100146.55
2019-01-28T21:28:42.284Z,100142.51
2019-01-28T21:31:14.513Z,100147.77
2019-01-28T21:33:46.795Z,100150.29
2019-01-28T21:36:32.387Z,100146.41
2019-01-28T21:39:05.181Z,100147.58
2019-01-28T21:41:38.494Z,100134.91
2019-01-28T21:44:10.954Z,100130.20
2019-01-28T21:46:44.268Z,100135.08
2019-01-28T21:49:16.704Z,100132.03
2019-01-28T21:51:50.739Z,100130.38
2019-01-28T21:54:25.474Z,100131.71
2019-01-28T21:56:57.752Z,100137.09
2019-01-28T21:59:29.950Z,100132.88
2019-01-28T22:02:02.217Z,100125.44
2019-01-28T22:04:34.544Z,100124.42
2019-01-28T22:07:06.709Z,100117.48
2019-01-28T22:09:38.950Z,100114.95
2019-01-28T22:12:12.147Z,100115.13
2019-01-28T22:14:44.294Z,100124.08
2019-01-28T22:17:16.605Z,100132.18
2019-01-28T22:19:48.816Z,100125.75
2019-01-28T22:22:21.550Z,100123.73
2019-01-28T22:24:53.873Z,100125.27
2019-01-28T22:27:26.100Z,100121.55
2019-01-28T22:29:58.489Z,100128.60
2019-01-28T22:32:30.515Z,100121.02
2019-01-28T22:35:02.712Z,100115.11
2019-01-28T22:37:34.928Z,100111.39
2019-01-28T22:40:07.434Z,100123.52
2019-01-28T22:42:39.605Z,100121.52
2019-01-28T22:45:13.071Z,100112.07
2019-01-28T22:47:45.244Z,100118.82
2019-01-28T22:50:17.955Z,100113.74
2019-01-28T22:52:50.179Z,100109.70
2019-01-28T22:55:22.407Z,100106.67
2019-01-28T22:57:54.753Z,100101.77
2019-01-28T23:00:54.551Z,100089.77
2019-01-28T23:03:27.941Z,100092.31
2019-01-28T23:06:00.022Z,100084.37
2019-01-28T23:08:32.241Z,100087.77
2019-01-28T23:11:04.317Z,100087.41
2019-01-28T23:13:37.075Z,100088.94
2019-01-28T23:16:09.268Z,100092.31
2019-01-28T23:18:41.478Z,100088.41
2019-01-28T23:21:13.607Z,100086.04
2019-01-28T23:23:46.757Z,100085.20
2019-01-28T23:26:19.134Z,100093.16
2019-01-28T23:28:51.354Z,100081.34
2019-01-28T23:31:23.493Z,100084.19
2019-01-28T23:33:55.633Z,100077.94
2019-01-28T23:36:27.936Z,100073.88
2019-01-28T23:38:59.957Z,100084.02
2019-01-28T23:41:32.324Z,100077.27
2019-01-28T23:44:04.550Z,100075.39
2019-01-28T23:46:37.696Z,100074.74
2019-01-28T23:49:10.918Z,100073.21
2019-01-28T23:51:43.150Z,100069.50
2019-01-28T23:54:15.577Z,100075.55
2019-01-28T23:56:47.964Z,100077.76
2019-01-28T23:59:20.241Z,100077.42
